sensor_id;sensor_type;location;lat;lon;timestamp;pressure;altitude;pressure_sealevel;temperature;humidity
38225;BME280;24025;48.138;11.428;2024-03-25T00:00:15;94712.59;;;5.67;70.24
38225;BME280;24025;48.138;11.428;2024-03-25T00:02:46;94720.66;;;5.55;70.05
38225;BME280;24025;48.138;11.428;2024-03-25T00:05:17;94717.66;;;5.76;69.40
38225;BME280;24025;48.138;11.428;2024-03-25T00:07:53;94724.81;;;5.76;69.22
38225;BME280;24025;48.138;11.428;2024-03-25T00:10:24;94726.28;;;6.15;68.55
38225;BME280;24025;48.138;11.428;2024-03-25T00:12:55;94725.59;;;5.76;68.34
38225;BME280;24025;48.138;11.428;2024-03-25T00:15:27;94731.00;;;5.64;69.10
38225;BME280;24025;48.138;11.428;2024-03-25T00:17:58;94728.34;;;5.41;70.61
38225;BME280;24025;48.138;11.428;2024-03-25T00:20:28;94722.47;;;5.51;70.25
38225;BME280;24025;48.138;11.428;2024-03-25T00:22:59;94723.31;;;5.75;69.29
38225;BME280;24025;48.138;11.428;2024-03-25T00:25:30;94717.34;;;5.81;69.24
38225;BME280;24025;48.138;11.428;2024-03-25T00:28:01;94717.44;;;5.85;69.16
38225;BME280;24025;48.138;11.428;2024-03-25T00:30:31;94725.78;;;5.87;68.52
38225;BME280;24025;48.138;11.428;2024-03-25T00:33:02;94728.22;;;5.95;68.63
38225;BME280;24025;48.138;11.428;2024-03-25T00:35:33;94715.16;;;6.06;68.16
38225;BME280;24025;48.138;11.428;2024-03-25T00:38:04;94722.59;;;6.20;67.28
38225;BME280;24025;48.138;11.428;2024-03-25T00:40:35;94717.22;;;6.39;67.03
38225;BME280;24025;48.138;11.428;2024-03-25T00:43:05;94715.84;;;6.49;67.26
38225;BME280;24025;48.138;11.428;2024-03-25T00:45:36;94711.16;;;6.16;67.87
38225;BME280;24025;48.138;11.428;2024-03-25T00:48:07;94722.97;;;5.99;68.76
38225;BME280;24025;48.138;11.428;2024-03-25T00:50:38;94722.09;;;5.91;68.32
38225;BME280;24025;48.138;11.428;2024-03-25T00:53:08;94715.41;;;5.97;68.64
38225;BME280;24025;48.138;11.428;2024-03-25T00:55:39;94707.47;;;5.97;68.91
38225;BME280;24025;48.138;11.428;2024-03-25T00:58:10;94712.41;;;6.22;68.39
38225;BME280;24025;48.138;11.428;2024-03-25T01:00:41;94712.69;;;5.94;69.17
38225;BME280;24025;48.138;11.428;2024-03-25T01:03:11;94710.31;;;5.89;69.00
38225;BME280;24025;48.138;11.428;2024-03-25T01:05:42;94712.94;;;6.08;68.82
38225;BME280;24025;48.138;11.428;2024-03-25T01:08:12;94712.25;;;6.11;68.88
38225;BME280;24025;48.138;11.428;2024-03-25T01:10:44;94715.09;;;5.60;70.23
38225;BME280;24025;48.138;11.428;2024-03-25T01:13:14;94711.94;;;5.74;70.34
38225;BME280;24025;48.138;11.428;2024-03-25T01:15:45;94713.97;;;5.61;70.54
38225;BME280;24025;48.138;11.428;2024-03-25T01:18:16;94716.22;;;6.24;68.89
38225;BME280;24025;48.138;11.428;2024-03-25T01:20:47;94710.81;;;5.94;69.21
38225;BME280;24025;48.138;11.428;2024-03-25T01:23:17;94707.72;;;5.69;70.39
38225;BME280;24025;48.138;11.428;2024-03-25T01:25:48;94713.53;;;5.79;69.29
38225;BME280;24025;48.138;11.428;2024-03-25T01:28:19;94704.84;;;5.78;69.78
38225;BME280;24025;48.138;11.428;2024-03-25T01:30:49;94704.84;;;5.78;69.66
38225;BME280;24025;48.138;11.428;2024-03-25T01:33:20;94710.19;;;6.01;69.17
38225;BME280;24025;48.138;11.428;2024-03-25T01:35:50;94713.28;;;6.07;69.06
38225;BME280;24025;48.138;11.428;2024-03-25T01:38:21;94713.81;;;5.74;69.31
38225;BME280;24025;48.138;11.428;2024-03-25T01:40:52;94717.13;;;5.90;69.21
38225;BME280;24025;48.138;11.428;2024-03-25T01:43:23;94715.22;;;5.67;69.48
38225;BME280;24025;48.138;11.428;2024-03-25T01:45:53;94708.28;;;5.59;70.09
38225;BME280;24025;48.138;11.428;2024-03-25T01:48:25;94705.44;;;5.91;69.27
38225;BME280;24025;48.138;11.428;2024-03-25T01:50:56;94707.25;;;5.25;70.98
38225;BME280;24025;48.138;11.428;2024-03-25T01:53:29;94706.78;;;5.81;69.17
38225;BME280;24025;48.138;11.428;2024-03-25T01:55:59;94702.13;;;5.75;69.79
38225;BME280;24025;48.138;11.428;2024-03-25T01:58:31;94714.13;;;5.68;69.84
38225;BME280;24025;48.138;11.428;2024-03-25T02:01:02;94706.72;;;5.78;69.70
38225;BME280;24025;48.138;11.428;2024-03-25T02:03:33;94705.47;;;6.14;68.59
38225;BME280;24025;48.138;11.428;2024-03-25T02:06:07;94699.66;;;6.05;68.39
38225;BME280;24025;48.138;11.428;2024-03-25T02:08:41;94703.25;;;5.93;69.03
38225;BME280;24025;48.138;11.428;2024-03-25T02:11:12;94701.34;;;5.93;68.71
38225;BME280;24025;48.138;11.428;2024-03-25T02:13:43;94695.50;;;5.84;69.59
38225;BME280;24025;48.138;11.428;2024-03-25T02:16:14;94700.16;;;5.91;68.31
38225;BME280;24025;48.138;11.428;2024-03-25T02:18:45;94698.47;;;5.60;70.16
38225;BME280;24025;48.138;11.428;2024-03-25T02:21:15;94693.78;;;5.92;69.44
38225;BME280;24025;48.138;11.428;2024-03-25T02:23:46;94691.06;;;5.69;69.82
38225;BME280;24025;48.138;11.428;2024-03-25T02:26:20;94690.25;;;5.88;68.66
38225;BME280;24025;48.138;11.428;2024-03-25T02:28:51;94697.78;;;5.86;68.92
38225;BME280;24025;48.138;11.428;2024-03-25T02:31:22;94693.19;;;5.83;69.26
38225;BME280;24025;48.138;11.428;2024-03-25T02:33:53;94692.34;;;5.56;69.68
38225;BME280;24025;48.138;11.428;2024-03-25T02:36:23;94689.78;;;5.59;69.96
38225;BME280;24025;48.138;11.428;2024-03-25T02:38:54;94680.97;;;5.75;69.64
38225;BME280;24025;48.138;11.428;2024-03-25T02:41:25;94696.31;;;5.46;70.04
38225;BME280;24025;48.138;11.428;2024-03-25T02:43:57;94685.53;;;5.55;69.57
38225;BME280;24025;48.138;11.428;2024-03-25T02:46:27;94688.03;;;5.28;70.16
38225;BME280;24025;48.138;11.428;2024-03-25T02:48:58;94683.19;;;5.30;70.74
38225;BME280;24025;48.138;11.428;2024-03-25T02:51:29;94677.22;;;5.76;68.80
38225;BME280;24025;48.138;11.428;2024-03-25T02:54:00;94692.50;;;5.86;68.50
38225;BME280;24025;48.138;11.428;2024-03-25T02:56:30;94685.38;;;5.90;68.82
38225;BME280;24025;48.138;11.428;2024-03-25T02:59:01;94689.84;;;5.86;68.72
38225;BME280;24025;48.138;11.428;2024-03-25T03:01:32;94694.66;;;5.57;69.39
38225;BME280;24025;48.138;11.428;2024-03-25T03:04:03;94697.97;;;5.54;69.56
38225;BME280;24025;48.138;11.428;2024-03-25T03:06:33;94704.72;;;5.52;69.47
38225;BME280;24025;48.138;11.428;2024-03-25T03:09:04;94696.84;;;5.55;69.43
38225;BME280;24025;48.138;11.428;2024-03-25T03:11:35;94695.41;;;5.58;69.56
38225;BME280;24025;48.138;11.428;2024-03-25T03:14:06;94704.50;;;5.60;69.45
38225;BME280;24025;48.138;11.428;2024-03-25T03:16:37;94694.09;;;5.48;68.93
38225;BME280;24025;48.138;11.428;2024-03-25T03:19:07;94695.19;;;5.47;69.44
38225;BME280;24025;48.138;11.428;2024-03-25T03:21:38;94702.44;;;5.50;69.33
38225;BME280;24025;48.138;11.428;2024-03-25T03:24:09;94701.69;;;5.50;68.93
38225;BME280;24025;48.138;11.428;2024-03-25T03:26:39;94701.47;;;5.58;68.89
38225;BME280;24025;48.138;11.428;2024-03-25T03:29:10;94706.25;;;5.53;69.47
38225;BME280;24025;48.138;11.428;2024-03-25T03:31:41;94703.34;;;5.38;69.66
38225;BME280;24025;48.138;11.428;2024-03-25T03:34:12;94703.69;;;5.37;70.18
38225;BME280;24025;48.138;11.428;2024-03-25T03:36:42;94708.22;;;5.17;70.71
38225;BME280;24025;48.138;11.428;2024-03-25T03:39:13;94713.13;;;4.80;70.64
38225;BME280;24025;48.138;11.428;2024-03-25T03:41:45;94718.84;;;4.66;71.69
38225;BME280;24025;48.138;11.428;2024-03-25T03:44:15;94716.09;;;4.43;73.28
38225;BME280;24025;48.138;11.428;2024-03-25T03:46:46;94708.69;;;4.33;74.42
38225;BME280;24025;48.138;11.428;2024-03-25T03:49:17;94709.88;;;4.04;75.52
38225;BME280;24025;48.138;11.428;2024-03-25T03:51:47;94722.06;;;4.24;74.61
38225;BME280;24025;48.138;11.428;2024-03-25T03:54:18;94724.53;;;4.33;73.83
38225;BME280;24025;48.138;11.428;2024-03-25T03:56:49;94720.19;;;4.25;74.38
38225;BME280;24025;48.138;11.428;2024-03-25T03:59:19;94716.91;;;4.32;73.85
38225;BME280;24025;48.138;11.428;2024-03-25T04:01:50;94720.50;;;4.23;74.67
38225;BME280;24025;48.138;11.428;2024-03-25T04:04:21;94719.16;;;4.30;74.16
38225;BME280;24025;48.138;11.428;2024-03-25T04:06:51;94727.31;;;4.09;75.39
38225;BME280;24025;48.138;11.428;2024-03-25T04:09:22;94723.03;;;3.88;75.49
38225;BME280;24025;48.138;11.428;2024-03-25T04:11:54;94719.31;;;3.89;75.94
38225;BME280;24025;48.138;11.428;2024-03-25T04:14:24;94712.06;;;3.86;76.20
38225;BME280;24025;48.138;11.428;2024-03-25T04:16:55;94723.19;;;3.64;77.89
38225;BME280;24025;48.138;11.428;2024-03-25T04:19:26;94720.06;;;3.74;76.76
38225;BME280;24025;48.138;11.428;2024-03-25T04:21:57;94706.72;;;3.98;76.43
38225;BME280;24025;48.138;11.428;2024-03-25T04:24:28;94722.69;;;3.74;76.76
38225;BME280;24025;48.138;11.428;2024-03-25T04:26:58;94712.00;;;3.98;76.21
38225;BME280;24025;48.138;11.428;2024-03-25T04:29:30;94713.06;;;3.66;77.54
38225;BME280;24025;48.138;11.428;2024-03-25T04:32:01;94717.31;;;3.70;77.75
38225;BME280;24025;48.138;11.428;2024-03-25T04:34:32;94713.88;;;3.82;77.83
38225;BME280;24025;48.138;11.428;2024-03-25T04:37:04;94722.00;;;3.77;76.95
38225;BME280;24025;48.138;11.428;2024-03-25T04:39:35;94726.69;;;3.84;77.38
38225;BME280;24025;48.138;11.428;2024-03-25T04:42:06;94719.63;;;3.88;76.99
38225;BME280;24025;48.138;11.428;2024-03-25T04:44:36;94713.63;;;4.03;76.34
38225;BME280;24025;48.138;11.428;2024-03-25T04:47:07;94715.81;;;3.85;76.95
38225;BME280;24025;48.138;11.428;2024-03-25T04:49:38;94719.31;;;4.05;76.15
38225;BME280;24025;48.138;11.428;2024-03-25T04:52:09;94717.94;;;3.95;76.38
38225;BME280;24025;48.138;11.428;2024-03-25T04:54:39;94710.63;;;3.73;77.05
38225;BME280;24025;48.138;11.428;2024-03-25T04:57:10;94716.22;;;3.87;76.94
38225;BME280;24025;48.138;11.428;2024-03-25T04:59:41;94728.16;;;3.53;78.11
38225;BME280;24025;48.138;11.428;2024-03-25T05:02:12;94723.31;;;3.83;77.64
38225;BME280;24025;48.138;11.428;2024-03-25T05:04:42;94728.66;;;3.71;77.42
38225;BME280;24025;48.138;11.428;2024-03-25T05:07:13;94735.16;;;3.61;76.92
38225;BME280;24025;48.138;11.428;2024-03-25T05:09:44;94741.88;;;3.59;77.75
38225;BME280;24025;48.138;11.428;2024-03-25T05:12:15;94741.41;;;3.41;78.76
38225;BME280;24025;48.138;11.428;2024-03-25T05:14:46;94739.34;;;3.78;77.07
38225;BME280;24025;48.138;11.428;2024-03-25T05:17:17;94745.41;;;3.79;77.32
38225;BME280;24025;48.138;11.428;2024-03-25T05:19:47;94751.34;;;3.76;77.48
38225;BME280;24025;48.138;11.428;2024-03-25T05:22:18;94744.94;;;3.89;76.17
38225;BME280;24025;48.138;11.428;2024-03-25T05:24:48;94752.66;;;3.82;76.88
38225;BME280;24025;48.138;11.428;2024-03-25T05:27:20;94752.94;;;4.08;75.02
38225;BME280;24025;48.138;11.428;2024-03-25T05:29:51;94749.44;;;4.20;75.27
38225;BME280;24025;48.138;11.428;2024-03-25T05:32:22;94752.41;;;4.03;75.97
38225;BME280;24025;48.138;11.428;2024-03-25T05:34:52;94753.19;;;3.59;76.71
38225;BME280;24025;48.138;11.428;2024-03-25T05:37:23;94757.44;;;4.08;76.43
38225;BME280;24025;48.138;11.428;2024-03-25T05:39:54;94764.03;;;3.86;76.93
38225;BME280;24025;48.138;11.428;2024-03-25T05:42:24;94762.28;;;3.90;76.92
38225;BME280;24025;48.138;11.428;2024-03-25T05:44:55;94758.44;;;3.87;77.34
38225;BME280;24025;48.138;11.428;2024-03-25T05:47:25;94762.28;;;3.90;76.96
38225;BME280;24025;48.138;11.428;2024-03-25T05:49:56;94762.44;;;3.97;76.31
38225;BME280;24025;48.138;11.428;2024-03-25T05:52:28;94760.75;;;4.20;76.35
38225;BME280;24025;48.138;11.428;2024-03-25T05:54:59;94762.88;;;4.15;75.73
38225;BME280;24025;48.138;11.428;2024-03-25T05:57:29;94766.78;;;4.05;75.70
38225;BME280;24025;48.138;11.428;2024-03-25T06:00:00;94763.84;;;4.07;75.85
38225;BME280;24025;48.138;11.428;2024-03-25T06:02:31;94764.00;;;4.14;75.06
38225;BME280;24025;48.138;11.428;2024-03-25T06:05:01;94763.31;;;4.33;74.36
38225;BME280;24025;48.138;11.428;2024-03-25T06:07:32;94767.00;;;4.60;73.86
38225;BME280;24025;48.138;11.428;2024-03-25T06:10:03;94763.84;;;4.54;73.75
38225;BME280;24025;48.138;11.428;2024-03-25T06:12:34;94773.03;;;4.60;73.32
38225;BME280;24025;48.138;11.428;2024-03-25T06:15:05;94780.84;;;4.57;73.42
38225;BME280;24025;48.138;11.428;2024-03-25T06:17:36;94775.91;;;4.55;73.37
38225;BME280;24025;48.138;11.428;2024-03-25T06:20:08;94773.63;;;4.69;73.38
38225;BME280;24025;48.138;11.428;2024-03-25T06:22:39;94782.13;;;4.78;72.84
38225;BME280;24025;48.138;11.428;2024-03-25T06:25:10;94777.38;;;4.52;73.13
38225;BME280;24025;48.138;11.428;2024-03-25T06:27:41;94779.81;;;4.77;72.28
38225;BME280;24025;48.138;11.428;2024-03-25T06:30:11;94779.19;;;4.99;71.91
38225;BME280;24025;48.138;11.428;2024-03-25T06:33:01;94780.44;;;4.70;72.59
38225;BME280;24025;48.138;11.428;2024-03-25T06:35:50;94785.34;;;4.88;71.79
38225;BME280;24025;48.138;11.428;2024-03-25T06:38:20;94787.28;;;4.91;71.52
38225;BME280;24025;48.138;11.428;2024-03-25T06:40:51;94786.03;;;4.84;71.48
38225;BME280;24025;48.138;11.428;2024-03-25T06:43:22;94785.94;;;4.97;71.40
38225;BME280;24025;48.138;11.428;2024-03-25T06:45:52;94787.03;;;4.96;71.09
38225;BME280;24025;48.138;11.428;2024-03-25T06:48:23;94800.75;;;5.01;70.23
38225;BME280;24025;48.138;11.428;2024-03-25T06:50:55;94788.25;;;5.18;69.96
38225;BME280;24025;48.138;11.428;2024-03-25T06:53:25;94792.75;;;5.52;69.58
38225;BME280;24025;48.138;11.428;2024-03-25T06:55:58;94783.91;;;5.64;68.63
38225;BME280;24025;48.138;11.428;2024-03-25T06:58:29;94787.25;;;5.80;67.69
38225;BME280;24025;48.138;11.428;2024-03-25T07:01:07;94790.72;;;5.65;67.89
38225;BME280;24025;48.138;11.428;2024-03-25T07:03:38;94787.59;;;5.79;67.50
38225;BME280;24025;48.138;11.428;2024-03-25T07:06:09;94794.56;;;5.48;67.64
38225;BME280;24025;48.138;11.428;2024-03-25T07:08:40;94781.69;;;5.85;67.54
38225;BME280;24025;48.138;11.428;2024-03-25T07:11:11;94784.81;;;5.91;66.76
38225;BME280;24025;48.138;11.428;2024-03-25T07:13:42;94790.13;;;5.91;66.66
38225;BME280;24025;48.138;11.428;2024-03-25T07:16:13;94782.84;;;6.07;66.37
38225;BME280;24025;48.138;11.428;2024-03-25T07:18:44;94779.66;;;5.98;66.09
38225;BME280;24025;48.138;11.428;2024-03-25T07:21:14;94784.81;;;5.72;67.04
38225;BME280;24025;48.138;11.428;2024-03-25T07:23:45;94787.97;;;5.96;65.91
38225;BME280;24025;48.138;11.428;2024-03-25T07:26:16;94786.63;;;6.06;65.76
38225;BME280;24025;48.138;11.428;2024-03-25T07:28:46;94781.31;;;6.06;65.12
38225;BME280;24025;48.138;11.428;2024-03-25T07:31:17;94784.63;;;6.22;64.67
38225;BME280;24025;48.138;11.428;2024-03-25T07:33:48;94783.81;;;6.18;64.38
38225;BME280;24025;48.138;11.428;2024-03-25T07:36:19;94769.59;;;6.49;63.77
38225;BME280;24025;48.138;11.428;2024-03-25T07:38:49;94770.38;;;6.53;63.27
38225;BME280;24025;48.138;11.428;2024-03-25T07:41:20;94775.91;;;6.68;62.87
38225;BME280;24025;48.138;11.428;2024-03-25T07:43:51;94776.69;;;6.68;61.77
38225;BME280;24025;48.138;11.428;2024-03-25T07:46:22;94787.09;;;6.80;62.42
38225;BME280;24025;48.138;11.428;2024-03-25T07:48:52;94781.34;;;6.52;61.78
38225;BME280;24025;48.138;11.428;2024-03-25T07:51:23;94781.63;;;6.70;61.80
38225;BME280;24025;48.138;11.428;2024-03-25T07:53:54;94769.97;;;6.74;61.60
38225;BME280;24025;48.138;11.428;2024-03-25T07:56:25;94778.31;;;6.76;60.82
38225;BME280;24025;48.138;11.428;2024-03-25T07:58:55;94778.94;;;6.93;60.13
38225;BME280;24025;48.138;11.428;2024-03-25T08:01:26;94770.38;;;6.76;60.40
38225;BME280;24025;48.138;11.428;2024-03-25T08:03:57;94776.16;;;6.59;60.64
38225;BME280;24025;48.138;11.428;2024-03-25T08:06:27;94779.25;;;6.88;60.72
38225;BME280;24025;48.138;11.428;2024-03-25T08:08:58;94770.38;;;6.76;59.49
38225;BME280;24025;48.138;11.428;2024-03-25T08:11:29;94776.91;;;6.82;59.81
38225;BME280;24025;48.138;11.428;2024-03-25T08:13:59;94772.38;;;7.09;59.57
38225;BME280;24025;48.138;11.428;2024-03-25T08:16:30;94762.41;;;7.29;58.79
38225;BME280;24025;48.138;11.428;2024-03-25T08:19:00;94769.22;;;7.00;59.00
38225;BME280;24025;48.138;11.428;2024-03-25T08:21:31;94775.03;;;7.09;59.07
38225;BME280;24025;48.138;11.428;2024-03-25T08:24:02;94777.03;;;7.16;58.27
38225;BME280;24025;48.138;11.428;2024-03-25T08:26:32;94770.47;;;7.36;58.60
38225;BME280;24025;48.138;11.428;2024-03-25T08:29:03;94780.69;;;7.08;58.04
38225;BME280;24025;48.138;11.428;2024-03-25T08:31:34;94777.69;;;7.39;58.58
38225;BME280;24025;48.138;11.428;2024-03-25T08:34:05;94769.38;;;7.71;57.96
38225;BME280;24025;48.138;11.428;2024-03-25T08:36:37;94769.81;;;8.14;57.09
38225;BME280;24025;48.138;11.428;2024-03-25T08:39:08;94771.84;;;7.90;56.32
38225;BME280;24025;48.138;11.428;2024-03-25T08:41:38;94771.75;;;7.83;57.29
38225;BME280;24025;48.138;11.428;2024-03-25T08:44:09;94769.59;;;7.92;56.68
38225;BME280;24025;48.138;11.428;2024-03-25T08:46:40;94771.06;;;7.86;55.16
38225;BME280;24025;48.138;11.428;2024-03-25T08:49:10;94767.78;;;8.00;55.33
38225;BME280;24025;48.138;11.428;2024-03-25T08:51:41;94768.31;;;7.79;55.28
38225;BME280;24025;48.138;11.428;2024-03-25T08:54:12;94765.13;;;8.00;55.40
38225;BME280;24025;48.138;11.428;2024-03-25T08:56:43;94766.63;;;8.01;55.00
38225;BME280;24025;48.138;11.428;2024-03-25T08:59:13;94758.22;;;7.92;53.71
38225;BME280;24025;48.138;11.428;2024-03-25T09:01:44;94748.53;;;8.10;53.91
38225;BME280;24025;48.138;11.428;2024-03-25T09:04:15;94756.41;;;8.03;51.39
38225;BME280;24025;48.138;11.428;2024-03-25T09:06:45;94750.84;;;8.52;50.17
38225;BME280;24025;48.138;11.428;2024-03-25T09:09:16;94737.00;;;8.80;50.22
38225;BME280;24025;48.138;11.428;2024-03-25T09:12:05;94745.34;;;8.79;47.88
38225;BME280;24025;48.138;11.428;2024-03-25T09:14:37;94742.91;;;8.60;47.71
38225;BME280;24025;48.138;11.428;2024-03-25T09:17:08;94744.13;;;8.25;48.68
38225;BME280;24025;48.138;11.428;2024-03-25T09:19:39;94743.78;;;8.74;48.24
38225;BME280;24025;48.138;11.428;2024-03-25T09:22:10;94742.38;;;8.91;49.73
38225;BME280;24025;48.138;11.428;2024-03-25T09:24:40;94739.53;;;8.63;46.65
38225;BME280;24025;48.138;11.428;2024-03-25T09:27:11;94738.34;;;9.15;47.53
38225;BME280;24025;48.138;11.428;2024-03-25T09:29:42;94739.66;;;8.80;47.30
38225;BME280;24025;48.138;11.428;2024-03-25T09:32:12;94740.25;;;9.15;45.05
38225;BME280;24025;48.138;11.428;2024-03-25T09:34:43;94727.31;;;9.13;44.38
38225;BME280;24025;48.138;11.428;2024-03-25T09:37:18;94731.41;;;8.96;43.76
38225;BME280;24025;48.138;11.428;2024-03-25T09:39:48;94725.00;;;9.08;43.22
38225;BME280;24025;48.138;11.428;2024-03-25T09:42:25;94718.69;;;9.41;43.26
38225;BME280;24025;48.138;11.428;2024-03-25T09:44:56;94717.22;;;8.78;45.98
38225;BME280;24025;48.138;11.428;2024-03-25T09:47:27;94721.63;;;9.15;46.15
38225;BME280;24025;48.138;11.428;2024-03-25T09:49:59;94714.97;;;8.80;46.41
38225;BME280;24025;48.138;11.428;2024-03-25T09:52:30;94716.16;;;8.86;46.57
38225;BME280;24025;48.138;11.428;2024-03-25T09:55:01;94711.13;;;9.50;46.29
38225;BME280;24025;48.138;11.428;2024-03-25T09:57:32;94711.13;;;9.50;46.30
38225;BME280;24025;48.138;11.428;2024-03-25T10:00:06;94702.34;;;9.39;44.18
38225;BME280;24025;48.138;11.428;2024-03-25T10:02:40;94704.69;;;9.62;42.43
38225;BME280;24025;48.138;11.428;2024-03-25T10:05:11;94700.84;;;9.38;42.37
38225;BME280;24025;48.138;11.428;2024-03-25T10:07:42;94694.25;;;9.18;42.03
38225;BME280;24025;48.138;11.428;2024-03-25T10:10:13;94691.47;;;9.87;42.22
38225;BME280;24025;48.138;11.428;2024-03-25T10:12:43;94682.75;;;9.90;41.75
38225;BME280;24025;48.138;11.428;2024-03-25T10:15:17;94674.28;;;9.59;42.49
38225;BME280;24025;48.138;11.428;2024-03-25T10:17:51;94684.56;;;9.64;43.24
38225;BME280;24025;48.138;11.428;2024-03-25T10:20:23;94692.91;;;9.56;43.24
38225;BME280;24025;48.138;11.428;2024-03-25T10:22:54;94679.25;;;9.68;42.36
38225;BME280;24025;48.138;11.428;2024-03-25T10:25:29;94675.06;;;9.63;43.72
38225;BME280;24025;48.138;11.428;2024-03-25T10:28:01;94672.50;;;10.24;43.03
38225;BME280;24025;48.138;11.428;2024-03-25T10:30:31;94679.66;;;9.88;42.45
38225;BME280;24025;48.138;11.428;2024-03-25T10:33:04;94668.22;;;9.55;42.56
38225;BME280;24025;48.138;11.428;2024-03-25T10:35:36;94671.31;;;9.86;41.30
38225;BME280;24025;48.138;11.428;2024-03-25T10:38:08;94664.78;;;9.62;42.72
38225;BME280;24025;48.138;11.428;2024-03-25T10:40:41;94653.06;;;9.95;42.22
38225;BME280;24025;48.138;11.428;2024-03-25T10:43:11;94653.44;;;10.11;42.11
38225;BME280;24025;48.138;11.428;2024-03-25T10:45:45;94654.16;;;9.65;41.15
38225;BME280;24025;48.138;11.428;2024-03-25T10:48:28;94654.56;;;9.75;41.75
38225;BME280;24025;48.138;11.428;2024-03-25T10:51:03;94648.88;;;10.05;40.80
38225;BME280;24025;48.138;11.428;2024-03-25T10:53:35;94651.16;;;9.85;40.71
38225;BME280;24025;48.138;11.428;2024-03-25T10:56:07;94642.00;;;9.75;40.96
38225;BME280;24025;48.138;11.428;2024-03-25T10:58:38;94628.34;;;10.12;38.74
38225;BME280;24025;48.138;11.428;2024-03-25T11:01:10;94627.56;;;10.15;37.10
38225;BME280;24025;48.138;11.428;2024-03-25T11:03:41;94635.19;;;10.24;37.43
38225;BME280;24025;48.138;11.428;2024-03-25T11:06:12;94626.44;;;10.24;38.27
38225;BME280;24025;48.138;11.428;2024-03-25T11:08:43;94623.38;;;10.64;38.47
38225;BME280;24025;48.138;11.428;2024-03-25T11:11:17;94624.53;;;10.53;37.43
38225;BME280;24025;48.138;11.428;2024-03-25T11:13:48;94615.69;;;10.84;37.40
38225;BME280;24025;48.138;11.428;2024-03-25T11:16:31;94615.28;;;10.86;37.22
38225;BME280;24025;48.138;11.428;2024-03-25T11:19:03;94607.22;;;11.07;38.55
38225;BME280;24025;48.138;11.428;2024-03-25T11:21:33;94601.97;;;10.82;37.20
38225;BME280;24025;48.138;11.428;2024-03-25T11:24:07;94593.25;;;11.55;37.11
38225;BME280;24025;48.138;11.428;2024-03-25T11:26:42;94585.22;;;11.62;37.24
38225;BME280;24025;48.138;11.428;2024-03-25T11:29:12;94585.97;;;10.86;36.74
38225;BME280;24025;48.138;11.428;2024-03-25T11:31:44;94577.66;;;10.62;36.09
38225;BME280;24025;48.138;11.428;2024-03-25T11:34:15;94569.66;;;10.66;36.64
38225;BME280;24025;48.138;11.428;2024-03-25T11:36:46;94567.50;;;11.27;35.89
38225;BME280;24025;48.138;11.428;2024-03-25T11:39:19;94560.59;;;11.92;37.56
38225;BME280;24025;48.138;11.428;2024-03-25T11:41:49;94568.13;;;12.45;36.38
38225;BME280;24025;48.138;11.428;2024-03-25T11:44:20;94562.28;;;11.64;34.97
38225;BME280;24025;48.138;11.428;2024-03-25T11:46:52;94547.66;;;12.32;34.76
38225;BME280;24025;48.138;11.428;2024-03-25T11:49:25;94550.91;;;12.12;33.69
38225;BME280;24025;48.138;11.428;2024-03-25T11:52:00;94555.16;;;12.47;34.86
38225;BME280;24025;48.138;11.428;2024-03-25T11:54:31;94544.38;;;12.55;34.05
38225;BME280;24025;48.138;11.428;2024-03-25T11:57:02;94555.38;;;12.60;33.52
38225;BME280;24025;48.138;11.428;2024-03-25T11:59:33;94547.00;;;12.92;33.83
38225;BME280;24025;48.138;11.428;2024-03-25T12:02:06;94543.25;;;12.14;32.31
38225;BME280;24025;48.138;11.428;2024-03-25T12:04:37;94534.53;;;12.07;33.91
38225;BME280;24025;48.138;11.428;2024-03-25T12:07:10;94527.88;;;12.60;34.14
38225;BME280;24025;48.138;11.428;2024-03-25T12:09:42;94516.34;;;12.66;32.67
38225;BME280;24025;48.138;11.428;2024-03-25T12:12:32;94519.72;;;12.70;32.44
38225;BME280;24025;48.138;11.428;2024-03-25T12:15:06;94512.97;;;11.83;33.49
38225;BME280;24025;48.138;11.428;2024-03-25T12:17:37;94508.47;;;12.86;34.28
38225;BME280;24025;48.138;11.428;2024-03-25T12:20:08;94509.41;;;11.97;33.25
38225;BME280;24025;48.138;11.428;2024-03-25T12:22:40;94501.66;;;12.82;34.00
38225;BME280;24025;48.138;11.428;2024-03-25T12:25:11;94490.22;;;12.47;32.84
38225;BME280;24025;48.138;11.428;2024-03-25T12:27:46;94491.94;;;12.64;33.15
38225;BME280;24025;48.138;11.428;2024-03-25T12:30:19;94491.94;;;11.89;33.72
38225;BME280;24025;48.138;11.428;2024-03-25T12:32:50;94491.91;;;12.30;33.24
38225;BME280;24025;48.138;11.428;2024-03-25T12:35:21;94486.59;;;12.61;34.87
38225;BME280;24025;48.138;11.428;2024-03-25T12:37:51;94477.84;;;13.18;33.04
38225;BME280;24025;48.138;11.428;2024-03-25T12:40:27;94470.00;;;12.76;33.95
38225;BME280;24025;48.138;11.428;2024-03-25T12:42:58;94469.13;;;12.18;33.24
38225;BME280;24025;48.138;11.428;2024-03-25T12:45:29;94459.72;;;12.41;32.93
38225;BME280;24025;48.138;11.428;2024-03-25T12:47:59;94463.50;;;13.04;32.31
38225;BME280;24025;48.138;11.428;2024-03-25T12:50:30;94459.31;;;13.30;33.01
38225;BME280;24025;48.138;11.428;2024-03-25T12:53:01;94456.56;;;12.80;32.45
38225;BME280;24025;48.138;11.428;2024-03-25T12:55:33;94455.13;;;13.02;31.10
38225;BME280;24025;48.138;11.428;2024-03-25T12:58:04;94441.41;;;12.70;32.19
38225;BME280;24025;48.138;11.428;2024-03-25T13:00:34;94437.19;;;12.72;32.71
38225;BME280;24025;48.138;11.428;2024-03-25T13:03:05;94434.00;;;12.51;32.56
38225;BME280;24025;48.138;11.428;2024-03-25T13:05:36;94417.38;;;13.47;32.67
38225;BME280;24025;48.138;11.428;2024-03-25T13:08:07;94422.50;;;13.38;30.14
38225;BME280;24025;48.138;11.428;2024-03-25T13:10:37;94413.66;;;14.28;31.20
38225;BME280;24025;48.138;11.428;2024-03-25T13:13:08;94416.66;;;14.10;29.23
38225;BME280;24025;48.138;11.428;2024-03-25T13:15:39;94412.94;;;14.43;31.43
38225;BME280;24025;48.138;11.428;2024-03-25T13:18:09;94405.69;;;14.80;30.42